Lexington, Virginia
Current Conditions -  °F | °C
As of 2:15 AM on Saturday 29 Nov 2014 (Local Time) from KHSP Reporting Station
Broken Clouds Broken Clouds  
Wind Chill: -7°   Ceiling: 9000
Heat Index: -1°   Visibility: 10mi
Dew Point: -12°   Wind: 13mph
Humidity: 43%   Direction: 240°WSW
Pressure: 30.08"   Gusts: NA
Location:  37.79°N, 79.44°W
Report Text: KHSP 290715Z AUTO 24011KT 10SM BKN090 M01/M12 A3008 RMK AO2 T10101122
Loading
Personal Weather Stations






























Interactive Weather Map New forecast layout! Learn more

10-Day Weather Forecast

Advertisements
Track Severe Weather on mobile